Terminal Aerodrome Forecast
Issued by NWS

Home | Current Version | Previous Version | Text Only | Print | Product List | Glossary On
Versions: 1 2 3 4 5 6 7 8 9 10 11 12 13 14 15 16
408
FTUS46 KLOX 290328 AAB
TAFPRB
TAF AMD
KPRB 290328Z 2903/2924 32012KT P6SM SKC
     FM290500 29007KT P6SM SKC
     FM290800 VRB03KT P6SM SKC
     FM292100 21012KT P6SM SKC=

USA.gov is the U.S. government's official web portal to all federal, state and local government web resources and services.